createdAt,value
2019-03-16T00:00:33.614Z,96520.11
2019-03-16T00:03:40.342Z,96511.05
2019-03-16T00:06:47.934Z,96496.73
2019-03-16T00:09:54.563Z,96520.59
2019-03-16T00:13:01.710Z,96528.10
2019-03-16T00:16:08.374Z,96507.23
2019-03-16T00:19:15.432Z,96527.41
2019-03-16T00:22:21.843Z,96535.30
2019-03-16T00:25:28.205Z,96539.59
2019-03-16T00:28:35.771Z,96547.85
2019-03-16T00:31:42.544Z,96540.80
2019-03-16T00:34:49.492Z,96538.99
2019-03-16T00:37:56.026Z,96548.19
2019-03-16T00:41:02.761Z,96550.21
2019-03-16T00:44:09.138Z,96563.70
2019-03-16T00:47:15.824Z,96566.33
2019-03-16T00:50:22.746Z,96553.91
2019-03-16T00:53:29.592Z,96554.41
2019-03-16T00:56:37.172Z,96543.30
2019-03-16T00:59:43.583Z,96554.42
2019-03-16T01:02:50.191Z,96542.80
2019-03-16T01:05:56.588Z,96542.91
2019-03-16T01:09:03.005Z,96529.77
2019-03-16T01:12:10.682Z,96532.52
2019-03-16T01:15:17.088Z,96534.64
2019-03-16T01:18:24.022Z,96533.30
2019-03-16T01:21:31.406Z,96539.27
2019-03-16T01:24:38.139Z,96545.39
2019-03-16T01:27:44.522Z,96552.05
2019-03-16T01:30:51.323Z,96561.85
2019-03-16T01:33:58.099Z,96554.78
2019-03-16T01:37:04.920Z,96569.13
2019-03-16T01:40:11.784Z,96563.42
2019-03-16T01:43:18.340Z,96567.94
2019-03-16T01:46:25.582Z,96569.85
2019-03-16T01:49:32.070Z,96588.86
2019-03-16T01:52:38.588Z,96593.37
2019-03-16T01:55:46.306Z,96599.03
2019-03-16T01:58:53.121Z,96599.47
2019-03-16T02:01:59.714Z,96597.09
2019-03-16T02:05:06.593Z,96593.77
2019-03-16T02:08:13.745Z,96614.16
2019-03-16T02:11:20.084Z,96617.52
2019-03-16T02:14:26.486Z,96610.60
2019-03-16T02:17:33.196Z,96608.91
2019-03-16T02:20:39.957Z,96601.45
2019-03-16T02:23:47.031Z,96617.34
2019-03-16T02:26:53.378Z,96628.92
2019-03-16T02:29:59.825Z,96615.70
2019-03-16T02:33:13.340Z,96614.00
2019-03-16T02:36:14.108Z,96613.02
2019-03-16T02:39:20.768Z,96596.08
2019-03-16T02:42:27.195Z,96605.27
2019-03-16T02:45:33.753Z,96617.50
2019-03-16T02:48:40.406Z,96612.76
2019-03-16T02:51:46.626Z,96610.45
2019-03-16T02:54:53.148Z,96625.63
2019-03-16T02:57:59.576Z,96644.27
2019-03-16T03:01:06.365Z,96646.34
2019-03-16T03:04:13.003Z,96646.13
2019-03-16T03:07:19.860Z,96652.78
2019-03-16T03:10:26.454Z,96658.12
2019-03-16T03:13:33.076Z,96656.08
2019-03-16T03:16:39.957Z,96648.42
2019-03-16T03:19:46.479Z,96641.86
2019-03-16T03:22:52.977Z,96640.55
2019-03-16T03:25:59.611Z,96648.06
2019-03-16T03:29:06.254Z,96637.92
2019-03-16T03:32:12.751Z,96651.09
2019-03-16T03:35:19.450Z,96658.97
2019-03-16T03:38:25.935Z,96646.37
2019-03-16T03:41:33.307Z,96660.19
2019-03-16T03:44:39.933Z,96662.02
2019-03-16T03:47:46.604Z,96660.81
2019-03-16T03:50:53.046Z,96665.74
2019-03-16T03:53:59.532Z,96671.16
2019-03-16T03:57:06.364Z,96671.70
2019-03-16T04:00:13.582Z,96657.88
2019-03-16T04:03:20.045Z,96672.62
2019-03-16T04:06:26.788Z,96682.41
2019-03-16T04:09:33.439Z,96689.85
2019-03-16T04:12:40.533Z,96691.59
2019-03-16T04:15:47.387Z,96702.70
2019-03-16T04:18:54.183Z,96702.48
2019-03-16T04:22:02.249Z,96717.70
2019-03-16T04:25:09.111Z,96718.03
2019-03-16T04:28:15.419Z,96724.95
2019-03-16T04:31:22.401Z,96726.83
2019-03-16T04:34:29.902Z,96736.33
2019-03-16T04:37:37.931Z,96737.92
2019-03-16T04:40:44.871Z,96740.16
2019-03-16T04:43:51.884Z,96743.59
2019-03-16T04:46:58.397Z,96746.70
2019-03-16T04:50:05.243Z,96739.34
2019-03-16T04:53:12.139Z,96745.47
2019-03-16T04:56:19.079Z,96749.97
2019-03-16T04:59:25.460Z,96760.10
2019-03-16T05:02:32.400Z,96769.52
2019-03-16T05:05:38.925Z,96764.39
2019-03-16T05:08:45.487Z,96768.68
2019-03-16T05:11:54.121Z,96757.57
2019-03-16T05:15:00.717Z,96762.93
2019-03-16T05:18:08.917Z,96755.22
2019-03-16T05:21:17.076Z,96757.51
2019-03-16T05:24:23.733Z,96770.53
2019-03-16T05:27:30.221Z,96776.72
2019-03-16T05:30:37.208Z,96775.71
2019-03-16T05:33:43.916Z,96775.44
2019-03-16T05:36:50.762Z,96782.89
2019-03-16T05:39:58.038Z,96793.66
2019-03-16T05:43:07.584Z,96791.71
2019-03-16T05:46:14.514Z,96784.00
2019-03-16T05:49:21.656Z,96790.47
2019-03-16T05:52:28.412Z,96798.77
2019-03-16T05:55:35.230Z,96796.27
2019-03-16T05:58:41.810Z,96798.33
2019-03-16T06:01:48.678Z,96804.62
2019-03-16T06:04:55.406Z,96791.03
2019-03-16T06:08:02.020Z,96796.81
2019-03-16T06:11:08.570Z,96795.17
2019-03-16T06:14:14.863Z,96794.19
2019-03-16T06:17:21.348Z,96800.89
2019-03-16T06:20:28.011Z,96799.23
2019-03-16T06:23:34.555Z,96804.36
2019-03-16T06:26:41.488Z,96804.36
2019-03-16T06:29:49.133Z,96799.67
2019-03-16T06:32:55.484Z,96800.27
2019-03-16T06:36:03.919Z,96801.59
2019-03-16T06:39:10.476Z,96798.69
2019-03-16T06:42:17.094Z,96798.58
2019-03-16T06:45:23.460Z,96795.59
2019-03-16T06:48:30.189Z,96787.66
2019-03-16T06:51:37.769Z,96785.77
2019-03-16T06:54:44.198Z,96796.92
2019-03-16T06:57:51.759Z,96791.89
2019-03-16T07:00:58.430Z,96793.13
2019-03-16T07:04:04.885Z,96784.87
2019-03-16T07:07:11.469Z,96791.19
2019-03-16T07:10:18.239Z,96786.53
2019-03-16T07:13:25.138Z,96791.17
2019-03-16T07:16:32.257Z,96793.89
2019-03-16T07:19:39.243Z,96787.89
2019-03-16T07:22:45.991Z,96790.36
2019-03-16T07:25:53.295Z,96792.45
2019-03-16T07:29:00.638Z,96798.33
2019-03-16T07:32:07.269Z,96795.30
2019-03-16T07:35:14.045Z,96795.43
2019-03-16T07:38:22.855Z,96796.92
2019-03-16T07:41:29.792Z,96807.37
2019-03-16T07:44:36.488Z,96806.80
2019-03-16T07:47:43.000Z,96801.58
2019-03-16T07:50:50.321Z,96803.06
2019-03-16T07:53:57.261Z,96792.28
2019-03-16T07:57:04.433Z,96792.95
2019-03-16T08:00:11.757Z,96798.70
2019-03-16T08:03:18.627Z,96790.45
2019-03-16T08:06:25.231Z,96784.41
2019-03-16T08:09:34.066Z,96784.91
2019-03-16T08:12:41.591Z,96785.48
2019-03-16T08:15:48.406Z,96776.83
2019-03-16T08:18:55.083Z,96774.09
2019-03-16T08:22:02.538Z,96776.31
2019-03-16T08:25:09.487Z,96782.89
2019-03-16T08:28:16.253Z,96775.00
2019-03-16T08:31:25.490Z,96781.99
2019-03-16T08:34:31.895Z,96769.19
2019-03-16T08:37:39.603Z,96755.78
2019-03-16T08:40:46.603Z,96766.20
2019-03-16T08:43:53.249Z,96767.41
2019-03-16T08:46:59.976Z,96772.55
2019-03-16T08:50:07.385Z,96776.97
2019-03-16T08:53:14.184Z,96776.50
2019-03-16T08:56:24.303Z,96776.97
2019-03-16T08:59:31.714Z,96758.78
2019-03-16T09:02:38.981Z,96761.89
2019-03-16T09:05:45.834Z,96758.05
2019-03-16T09:08:52.385Z,96756.38
2019-03-16T09:11:59.536Z,96757.56
2019-03-16T09:15:07.168Z,96761.06
2019-03-16T09:18:13.741Z,96765.47
2019-03-16T09:21:20.481Z,96764.48
2019-03-16T09:24:27.037Z,96759.48
2019-03-16T09:27:33.493Z,96753.11
2019-03-16T09:30:40.391Z,96760.17
2019-03-16T09:33:46.782Z,96762.56
2019-03-16T09:36:53.378Z,96756.95
2019-03-16T09:39:59.947Z,96749.30
2019-03-16T09:43:06.366Z,96760.41
2019-03-16T09:46:12.912Z,96756.41
2019-03-16T09:49:19.374Z,96755.27
2019-03-16T09:52:26.321Z,96741.20
2019-03-16T09:55:35.216Z,96735.67
2019-03-16T09:58:41.320Z,96728.61
2019-03-16T10:01:48.374Z,96719.45
2019-03-16T10:04:55.452Z,96706.39
2019-03-16T10:08:02.148Z,96703.13
2019-03-16T10:11:09.311Z,96697.59
2019-03-16T10:14:15.964Z,96703.42
2019-03-16T10:17:23.080Z,96692.39
2019-03-16T10:20:29.874Z,96692.47
2019-03-16T10:23:36.373Z,96673.41
2019-03-16T10:26:44.783Z,96674.22
2019-03-16T10:29:52.654Z,96656.77
2019-03-16T10:32:59.130Z,96666.44
2019-03-16T10:36:05.385Z,96665.81
2019-03-16T10:39:12.871Z,96669.18
2019-03-16T10:42:18.994Z,96673.70
2019-03-16T10:45:25.975Z,96677.23
2019-03-16T10:48:32.652Z,96663.83
2019-03-16T10:51:40.150Z,96676.77
2019-03-16T10:54:47.182Z,96675.11
2019-03-16T10:57:53.921Z,96681.55
2019-03-16T11:01:00.313Z,96677.33
2019-03-16T11:04:06.902Z,96666.55
2019-03-16T11:07:13.600Z,96663.42
2019-03-16T11:10:21.957Z,96648.90
2019-03-16T11:13:28.882Z,96652.02
2019-03-16T11:16:36.527Z,96653.44
2019-03-16T11:19:43.288Z,96652.02
2019-03-16T11:22:50.024Z,96653.09
2019-03-16T11:25:56.634Z,96653.27
2019-03-16T11:29:08.840Z,96650.58
2019-03-16T11:32:11.535Z,96651.52
2019-03-16T11:35:18.509Z,96658.73
2019-03-16T11:38:25.276Z,96653.73
2019-03-16T11:41:33.422Z,96656.50
2019-03-16T11:44:41.843Z,96656.58
2019-03-16T11:47:48.715Z,96658.17
2019-03-16T11:50:55.408Z,96649.16
2019-03-16T11:54:02.215Z,96647.87
2019-03-16T11:57:09.408Z,96646.63
2019-03-16T12:00:15.856Z,96658.61
2019-03-16T12:03:22.995Z,96645.17
2019-03-16T12:06:29.476Z,96635.25
2019-03-16T12:09:36.206Z,96640.54
2019-03-16T12:12:43.589Z,96642.14
2019-03-16T12:15:50.553Z,96634.53
2019-03-16T12:18:57.380Z,96632.40
2019-03-16T12:22:03.955Z,96634.01
2019-03-16T12:25:10.892Z,96629.95
2019-03-16T12:28:17.627Z,96617.22
2019-03-16T12:31:25.602Z,96614.12
2019-03-16T12:34:32.513Z,96613.91
2019-03-16T12:37:39.789Z,96613.05
2019-03-16T12:40:46.719Z,96602.75
2019-03-16T12:43:54.398Z,96595.52
2019-03-16T12:47:01.541Z,96594.27
2019-03-16T12:50:08.277Z,96577.41
2019-03-16T12:53:16.449Z,96572.65
2019-03-16T12:56:23.562Z,96565.82
2019-03-16T12:59:30.356Z,96572.97
2019-03-16T13:02:36.983Z,96572.31
2019-03-16T13:05:43.832Z,96579.64
2019-03-16T13:08:52.510Z,96579.46
2019-03-16T13:11:59.409Z,96583.84
2019-03-16T13:15:07.058Z,96585.09
2019-03-16T13:18:13.417Z,96567.11
2019-03-16T13:21:20.483Z,96569.25
2019-03-16T13:24:27.339Z,96568.28
2019-03-16T13:27:33.763Z,96558.70
2019-03-16T13:30:40.552Z,96558.22
2019-03-16T13:33:47.174Z,96561.51
2019-03-16T13:36:53.897Z,96556.84
2019-03-16T13:40:00.909Z,96555.61
2019-03-16T13:43:07.080Z,96564.74
2019-03-16T13:46:13.440Z,96565.20
2019-03-16T13:49:20.922Z,96567.39
2019-03-16T13:52:27.903Z,96574.95
2019-03-16T13:55:35.092Z,96580.86
2019-03-16T13:58:41.941Z,96577.94
2019-03-16T14:01:48.416Z,96573.86
2019-03-16T14:04:59.597Z,96587.42
2019-03-16T14:08:06.677Z,96594.52
2019-03-16T14:11:14.294Z,96579.02
2019-03-16T14:14:21.445Z,96550.94
2019-03-16T14:17:28.557Z,96570.48
2019-03-16T14:20:35.445Z,96562.21
2019-03-16T14:23:42.755Z,96546.98
2019-03-16T14:26:49.740Z,96550.02
2019-03-16T14:29:56.718Z,96544.39
2019-03-16T14:33:03.102Z,96533.82
2019-03-16T14:36:10.021Z,96528.58
2019-03-16T14:39:16.889Z,96543.99
2019-03-16T14:42:23.378Z,96531.97
2019-03-16T14:45:30.557Z,96535.27
2019-03-16T14:48:37.710Z,96547.52
2019-03-16T14:51:44.628Z,96533.14
2019-03-16T14:54:51.298Z,96519.69
2019-03-16T14:57:58.900Z,96502.78
2019-03-16T15:01:05.605Z,96515.59
2019-03-16T15:04:11.977Z,96520.22
2019-03-16T15:07:18.202Z,96525.20
2019-03-16T15:10:24.825Z,96514.16
2019-03-16T15:13:35.181Z,96520.42
2019-03-16T15:16:41.954Z,96502.70
2019-03-16T15:19:49.125Z,96495.22
2019-03-16T15:22:56.054Z,96508.11
2019-03-16T15:26:02.538Z,96510.14
2019-03-16T15:29:09.547Z,96516.69
2019-03-16T15:32:16.100Z,96532.20
2019-03-16T15:35:22.651Z,96529.55
2019-03-16T15:38:32.764Z,96533.50
2019-03-16T15:41:39.425Z,96520.42
2019-03-16T15:44:46.476Z,96509.87
2019-03-16T15:47:53.449Z,96518.45
2019-03-16T15:51:00.317Z,96513.52
2019-03-16T15:54:07.025Z,96508.38
2019-03-16T15:57:13.752Z,96508.88
2019-03-16T16:00:20.573Z,96503.09
2019-03-16T16:03:27.105Z,96506.17
2019-03-16T16:06:34.995Z,96504.88
2019-03-16T16:09:41.857Z,96499.78
2019-03-16T16:12:48.903Z,96492.16
2019-03-16T16:15:56.727Z,96496.97
2019-03-16T16:19:03.580Z,96488.22
2019-03-16T16:22:11.411Z,96484.60
2019-03-16T16:25:17.993Z,96481.91
2019-03-16T16:28:24.934Z,96473.34
2019-03-16T16:31:32.219Z,96481.20
2019-03-16T16:34:38.668Z,96497.47
2019-03-16T16:37:45.401Z,96484.66
2019-03-16T16:40:52.426Z,96489.11
2019-03-16T16:44:01.241Z,96501.38
2019-03-16T16:47:10.994Z,96489.36
2019-03-16T16:50:18.260Z,96496.47
2019-03-16T16:53:28.539Z,96505.70
2019-03-16T16:56:40.969Z,96493.12
2019-03-16T16:59:50.546Z,96492.71
2019-03-16T17:03:04.721Z,96487.36
2019-03-16T17:06:14.156Z,96485.41
2019-03-16T17:09:29.201Z,96497.30
2019-03-16T17:12:39.616Z,96494.87
2019-03-16T17:15:50.093Z,96494.95
2019-03-16T17:18:58.195Z,96488.92
2019-03-16T17:22:05.699Z,96506.08
2019-03-16T17:25:15.378Z,96507.21
2019-03-16T17:28:24.350Z,96498.44
2019-03-16T17:31:42.095Z,96495.37
2019-03-16T17:34:45.161Z,96498.77
2019-03-16T17:37:55.600Z,96493.91
2019-03-16T17:41:02.850Z,96494.66
2019-03-16T17:44:16.668Z,96484.46
2019-03-16T17:47:24.641Z,96482.58
2019-03-16T17:50:33.102Z,96472.26
2019-03-16T17:53:42.845Z,96474.25
2019-03-16T17:56:53.455Z,96469.02
2019-03-16T18:00:04.417Z,96459.97
2019-03-16T18:03:14.458Z,96473.27
2019-03-16T18:06:22.934Z,96450.78
2019-03-16T18:09:30.774Z,96447.92
2019-03-16T18:12:38.064Z,96443.44
2019-03-16T18:15:44.692Z,96438.10
2019-03-16T18:18:52.485Z,96451.75
2019-03-16T18:22:02.936Z,96450.82
2019-03-16T18:25:10.691Z,96449.23
2019-03-16T18:28:20.213Z,96456.67
2019-03-16T18:31:27.600Z,96452.58
2019-03-16T18:34:33.960Z,96459.81
2019-03-16T18:37:41.445Z,96471.24
2019-03-16T18:40:48.032Z,96456.23
2019-03-16T18:43:55.068Z,96442.36
2019-03-16T18:47:02.171Z,96448.53
2019-03-16T18:50:10.935Z,96439.91
2019-03-16T18:53:17.566Z,96432.00
2019-03-16T18:56:24.207Z,96445.73
2019-03-16T18:59:30.786Z,96435.23
2019-03-16T19:02:40.380Z,96441.58
2019-03-16T19:05:49.367Z,96434.22
2019-03-16T19:08:58.731Z,96423.33
2019-03-16T19:12:09.825Z,96415.70
2019-03-16T19:15:16.428Z,96411.67
2019-03-16T19:18:22.734Z,96400.97
2019-03-16T19:21:29.433Z,96413.02
2019-03-16T19:24:35.843Z,96404.84
2019-03-16T19:27:42.870Z,96401.69
2019-03-16T19:30:49.659Z,96399.66
2019-03-16T19:34:00.063Z,96397.31
2019-03-16T19:37:06.586Z,96402.69
2019-03-16T19:40:13.159Z,96395.74
2019-03-16T19:43:23.024Z,96392.11
2019-03-16T19:46:30.128Z,96394.83
2019-03-16T19:49:36.888Z,96376.48
2019-03-16T19:52:43.539Z,96370.27
2019-03-16T19:55:50.836Z,96368.59
2019-03-16T19:59:00.808Z,96353.86
2019-03-16T20:02:06.995Z,96346.81
2019-03-16T20:05:14.063Z,96348.16
2019-03-16T20:08:21.276Z,96348.28
2019-03-16T20:11:27.712Z,96331.86
2019-03-16T20:14:36.164Z,96329.41
2019-03-16T20:17:43.091Z,96334.05
2019-03-16T20:20:50.693Z,96342.00
2019-03-16T20:23:58.084Z,96327.34
2019-03-16T20:27:07.106Z,96327.53
2019-03-16T20:30:14.280Z,96325.69
2019-03-16T20:33:20.793Z,96321.86
2019-03-16T20:36:27.473Z,96319.70
2019-03-16T20:39:34.355Z,96324.45
2019-03-16T20:42:42.213Z,96319.18
2019-03-16T20:45:49.003Z,96319.02
2019-03-16T20:48:56.081Z,96324.59
2019-03-16T20:52:03.211Z,96318.79
2019-03-16T20:55:10.330Z,96311.13
2019-03-16T20:58:18.516Z,96323.08
2019-03-16T21:01:27.429Z,96332.60
2019-03-16T21:04:36.701Z,96342.53
2019-03-16T21:07:43.342Z,96345.36
2019-03-16T21:10:50.416Z,96343.27
2019-03-16T21:13:57.734Z,96341.36
2019-03-16T21:17:04.621Z,96351.91
2019-03-16T21:20:12.229Z,96350.76
2019-03-16T21:23:19.247Z,96346.07
2019-03-16T21:26:26.022Z,96346.90
2019-03-16T21:29:32.795Z,96341.61
2019-03-16T21:32:39.449Z,96333.06
2019-03-16T21:35:46.474Z,96333.77
2019-03-16T21:38:54.951Z,96327.84
2019-03-16T21:42:01.552Z,96328.67
2019-03-16T21:45:08.922Z,96323.97
2019-03-16T21:48:16.917Z,96317.88
2019-03-16T21:51:27.647Z,96313.91
2019-03-16T21:54:36.050Z,96296.95
2019-03-16T21:57:43.438Z,96296.34
2019-03-16T22:00:50.047Z,96306.32
2019-03-16T22:03:56.968Z,96301.89
2019-03-16T22:07:03.602Z,96303.97
2019-03-16T22:10:10.548Z,96299.52
2019-03-16T22:13:17.539Z,96289.31
2019-03-16T22:16:24.475Z,96293.04
2019-03-16T22:19:32.015Z,96287.50
2019-03-16T22:22:38.684Z,96295.33
2019-03-16T22:25:45.591Z,96276.38
2019-03-16T22:28:52.481Z,96280.13
2019-03-16T22:31:59.700Z,96282.73
2019-03-16T22:35:09.147Z,96266.45
2019-03-16T22:38:18.130Z,96278.64
2019-03-16T22:41:27.470Z,96280.84
2019-03-16T22:44:34.460Z,96279.13
2019-03-16T22:47:41.621Z,96275.90
2019-03-16T22:50:48.346Z,96275.28
2019-03-16T22:53:56.595Z,96270.38
2019-03-16T22:57:03.435Z,96276.36
2019-03-16T23:00:11.835Z,96263.92
2019-03-16T23:03:20.447Z,96265.38
2019-03-16T23:06:28.003Z,96264.66
2019-03-16T23:09:34.746Z,96253.69
2019-03-16T23:12:42.769Z,96252.27
2019-03-16T23:15:49.462Z,96255.00
2019-03-16T23:18:57.121Z,96251.45
2019-03-16T23:22:03.791Z,96238.48
2019-03-16T23:25:10.681Z,96226.33
2019-03-16T23:28:17.344Z,96221.61
2019-03-16T23:31:25.133Z,96239.73
2019-03-16T23:34:31.835Z,96227.93
2019-03-16T23:37:38.684Z,96227.67
2019-03-16T23:40:46.702Z,96227.82
2019-03-16T23:43:54.051Z,96226.02
2019-03-16T23:47:00.609Z,96225.63
2019-03-16T23:50:07.133Z,96219.48
2019-03-16T23:53:13.761Z,96211.89
2019-03-16T23:56:20.631Z,96203.86
2019-03-16T23:59:27.383Z,96210.27
